El Encanto — WDD6057 — position and weather

sailwx.info

Track history (hours):
 
Tides and Currents Weather Stations Pressure Air Temp Water Temp Dewpoint Dewpoint Depression Visibility Wind Speed Wind Dir Waves Ship Positions

El Encanto

Owner: Dock High LLC, Irvine, CA. More information available from US FCC via Universal Licensing System and Coast Guard Vessel Documentation Center.

Last reported at 2017-Oct-22 04:11 UTC. Time now 2017-Oct-22 10:14 UTC.
Position N 33°35' W 117°55'.

Length 22 m.

Type: Pleasure craft. MMSI: 367167740.

Date/timePositionNaut miles runAvg speedWind from/ knotsBaromVisibWave heightAir tempDewpointWater temp
2017-Oct-22 04:11N 33°35' W 117°55'410.5
2017-Oct-22 03:46N 33°34' W 117°60'310.7
2017-Oct-22 03:29N 33°33' W 118°03'610.8
2017-Oct-22 02:54N 33°33' W 118°11'2910.1
2017-Oct-22 00:03N 33°27' W 118°45'1 9.1
2017-Oct-21 23:58N 33°27' W 118°45'4 9.3
2017-Oct-21 23:30N 33°25' W 118°50'7 9.1
2017-Oct-21 22:47N 33°23' W 118°58'4 7.6
2017-Oct-21 22:18N 33°21' W 119°02'1 2.6
2017-Oct-21 21:55N 33°22' W 119°01'3 4.4
2017-Oct-21 21:11N 33°23' W 119°05'1 3.0
2017-Oct-21 20:55N 33°23' W 119°04'1 1.6
2017-Oct-21 20:21N 33°23' W 119°05'1 2.2
2017-Oct-21 20:00N 33°23' W 119°04'2 4.4
2017-Oct-21 19:30N 33°25' W 119°02'3 6.2
2017-Oct-21 19:00N 33°27' W 119°00'1 1.7
2017-Oct-21 18:22N 33°28' W 118°60'2 4.2
2017-Oct-21 17:59N 33°27' W 119°00'2 3.4
2017-Oct-21 17:30N 33°29' W 119°01'0 0.6
2017-Oct-21 17:00N 33°29' W 119°00'4 7.1
2017-Oct-21 16:30N 33°32' W 118°58'3 5.1
2017-Oct-21 16:00N 33°31' W 118°55'1 2.3
2017-Oct-21 15:30N 33°33' W 118°54'3 5.1
2017-Oct-21 15:00N 33°34' W 118°57'3 6.4
2017-Oct-21 14:28N 33°32' W 118°54'  
2017-Oct-18 00:08N 33°37' W 117°55'0 0.0
2017-Oct-17 23:50N 33°37' W 117°55'1 0.1
2017-Oct-17 15:09N 33°37' W 117°55'0 0.0
2017-Oct-17 14:59N 33°37' W 117°55'1 0.0
2017-Oct-16 20:15N 33°37' W 117°55'0 0.0
2017-Oct-15 19:04N 33°37' W 117°55'0 0.0
2017-Oct-15 18:58N 33°37' W 117°55'0 0.0
2017-Oct-15 18:16N 33°37' W 117°55'0 0.0
2017-Oct-15 17:46N 33°37' W 117°55'0 0.0
2017-Oct-15 17:28N 33°37' W 117°55'0 0.0
2017-Oct-15 16:49N 33°37' W 117°55'0 0.0
2017-Oct-15 15:31N 33°37' W 117°55'0 0.0
2017-Oct-15 15:28N 33°37' W 117°55'0 0.0
2017-Oct-15 14:49N 33°37' W 117°55'0 0.0
2017-Oct-15 13:55N 33°37' W 117°55'0 0.0
2017-Oct-15 13:28N 33°37' W 117°55'0 0.0
2017-Oct-15 12:58N 33°37' W 117°55'0 0.0
2017-Oct-15 12:28N 33°37' W 117°55'0 0.0
2017-Oct-15 11:58N 33°37' W 117°55'0 0.0
2017-Oct-15 11:28N 33°37' W 117°55'0 0.0
2017-Oct-15 10:58N 33°37' W 117°55'0 0.0
2017-Oct-15 10:28N 33°37' W 117°55'0 0.0
2017-Oct-15 09:55N 33°37' W 117°55'0 0.0
2017-Oct-15 09:22N 33°37' W 117°55'0 0.0
2017-Oct-15 08:55N 33°37' W 117°55'0 0.0
2017-Oct-15 03:28N 33°37' W 117°55'0 0.0
2017-Oct-15 02:52N 33°37' W 117°55'0 0.0
2017-Oct-15 02:22N 33°37' W 117°55'0 0.0
2017-Oct-15 01:14N 33°37' W 117°55'0 0.0
2017-Oct-15 00:56N 33°37' W 117°55'0 0.0
2017-Oct-15 00:20N 33°37' W 117°55'0 0.0
2017-Oct-14 23:56N 33°37' W 117°55'0 0.0
2017-Oct-14 23:26N 33°37' W 117°55'0 0.0
2017-Oct-14 22:56N 33°37' W 117°55'0 0.0
2017-Oct-14 22:26N 33°37' W 117°55'0 0.0
2017-Oct-14 21:56N 33°37' W 117°55'0 0.0
2017-Oct-14 20:02N 33°37' W 117°55'0 0.0
2017-Oct-14 19:56N 33°37' W 117°55'0 0.0
2017-Oct-14 19:20N 33°37' W 117°55'0 0.0
2017-Oct-14 16:56N 33°37' W 117°55'0 0.0
2017-Oct-14 02:36N 33°37' W 117°55'1 5.9
2017-Oct-14 02:30N 33°37' W 117°55'1 2.0
2017-Oct-14 02:00N 33°36' W 117°54'  
Track history (hours):
 
Tides and Currents Weather Stations Pressure Air Temp Water Temp Dewpoint Dewpoint Depression Visibility Wind Speed Wind Dir Waves Ship Positions

El Encanto

Owner: Dock High LLC, Irvine, CA. More information available from US FCC via Universal Licensing System and Coast Guard Vessel Documentation Center.

Last reported at 2017-Oct-22 04:11 UTC. Time now 2017-Oct-22 10:14 UTC.
Position N 33°35' W 117°55'.

Length 22 m.

Type: Pleasure craft. MMSI: 367167740.

Date/timePositionNaut miles runAvg speedWind from/ knotsBaromVisibWave heightAir tempDewpointWater temp
2017-Oct-22 04:11N 33°35' W 117°55'410.5
2017-Oct-22 03:46N 33°34' W 117°60'310.7
2017-Oct-22 03:29N 33°33' W 118°03'610.8
2017-Oct-22 02:54N 33°33' W 118°11'2910.1
2017-Oct-22 00:03N 33°27' W 118°45'1 9.1
2017-Oct-21 23:58N 33°27' W 118°45'4 9.3
2017-Oct-21 23:30N 33°25' W 118°50'7 9.1
2017-Oct-21 22:47N 33°23' W 118°58'4 7.6
2017-Oct-21 22:18N 33°21' W 119°02'1 2.6
2017-Oct-21 21:55N 33°22' W 119°01'3 4.4
2017-Oct-21 21:11N 33°23' W 119°05'1 3.0
2017-Oct-21 20:55N 33°23' W 119°04'1 1.6
2017-Oct-21 20:21N 33°23' W 119°05'1 2.2
2017-Oct-21 20:00N 33°23' W 119°04'2 4.4
2017-Oct-21 19:30N 33°25' W 119°02'3 6.2
2017-Oct-21 19:00N 33°27' W 119°00'1 1.7
2017-Oct-21 18:22N 33°28' W 118°60'2 4.2
2017-Oct-21 17:59N 33°27' W 119°00'2 3.4
2017-Oct-21 17:30N 33°29' W 119°01'0 0.6
2017-Oct-21 17:00N 33°29' W 119°00'4 7.1
2017-Oct-21 16:30N 33°32' W 118°58'3 5.1
2017-Oct-21 16:00N 33°31' W 118°55'1 2.3
2017-Oct-21 15:30N 33°33' W 118°54'3 5.1
2017-Oct-21 15:00N 33°34' W 118°57'3 6.4
2017-Oct-21 14:28N 33°32' W 118°54'  
2017-Oct-18 00:08N 33°37' W 117°55'0 0.0
2017-Oct-17 23:50N 33°37' W 117°55'1 0.1
2017-Oct-17 15:09N 33°37' W 117°55'0 0.0
2017-Oct-17 14:59N 33°37' W 117°55'1 0.0
2017-Oct-16 20:15N 33°37' W 117°55'0 0.0
2017-Oct-15 19:04N 33°37' W 117°55'0 0.0
2017-Oct-15 18:58N 33°37' W 117°55'0 0.0
2017-Oct-15 18:16N 33°37' W 117°55'0 0.0
2017-Oct-15 17:46N 33°37' W 117°55'0 0.0
2017-Oct-15 17:28N 33°37' W 117°55'0 0.0
2017-Oct-15 16:49N 33°37' W 117°55'0 0.0
2017-Oct-15 15:31N 33°37' W 117°55'0 0.0
2017-Oct-15 15:28N 33°37' W 117°55'0 0.0
2017-Oct-15 14:49N 33°37' W 117°55'0 0.0
2017-Oct-15 13:55N 33°37' W 117°55'0 0.0
2017-Oct-15 13:28N 33°37' W 117°55'0 0.0
2017-Oct-15 12:58N 33°37' W 117°55'0 0.0
2017-Oct-15 12:28N 33°37' W 117°55'0 0.0
2017-Oct-15 11:58N 33°37' W 117°55'0 0.0
2017-Oct-15 11:28N 33°37' W 117°55'0 0.0
2017-Oct-15 10:58N 33°37' W 117°55'0 0.0
2017-Oct-15 10:28N 33°37' W 117°55'0 0.0
2017-Oct-15 09:55N 33°37' W 117°55'0 0.0
2017-Oct-15 09:22N 33°37' W 117°55'0 0.0
2017-Oct-15 08:55N 33°37' W 117°55'0 0.0
2017-Oct-15 03:28N 33°37' W 117°55'0 0.0
2017-Oct-15 02:52N 33°37' W 117°55'0 0.0
2017-Oct-15 02:22N 33°37' W 117°55'0 0.0
2017-Oct-15 01:14N 33°37' W 117°55'0 0.0
2017-Oct-15 00:56N 33°37' W 117°55'0 0.0
2017-Oct-15 00:20N 33°37' W 117°55'0 0.0
2017-Oct-14 23:56N 33°37' W 117°55'0 0.0
2017-Oct-14 23:26N 33°37' W 117°55'0 0.0
2017-Oct-14 22:56N 33°37' W 117°55'0 0.0
2017-Oct-14 22:26N 33°37' W 117°55'0 0.0
2017-Oct-14 21:56N 33°37' W 117°55'0 0.0
2017-Oct-14 20:02N 33°37' W 117°55'0 0.0
2017-Oct-14 19:56N 33°37' W 117°55'0 0.0
2017-Oct-14 19:20N 33°37' W 117°55'0 0.0
2017-Oct-14 16:56N 33°37' W 117°55'0 0.0
2017-Oct-14 02:36N 33°37' W 117°55'1 5.9
2017-Oct-14 02:30N 33°37' W 117°55'1 2.0
2017-Oct-14 02:00N 33°36' W 117°54'  

Dump ship's entire track history